Celik 1 — 9HKY9 — position and weather

sailwx.info

Track history (hours):
 
Tides and Currents Weather Stations Pressure Air Temp Water Temp Dewpoint Dewpoint Depression Visibility Wind Speed Wind Dir Waves Ship Positions

Celik 1

Last reported at 2017-Nov-11 15:59 UTC. Time now 2017-Nov-23 18:25 UTC.
Position N 43°33' E 029°02'.
Warning: this ship's position is 12 days out of date.

Length 121 m; draft 6.8 m.

Type: Cargo ship. MMSI: 249114000.

Date/timePositionNaut miles runAvg speedWind from/ knotsBaromVisibWave heightAir tempDewpointWater temp
2017-Nov-11 15:59N 43°33' E 029°02'7 9.3
2017-Nov-11 15:12N 43°41' E 029°02'3 9.3
2017-Nov-11 14:55N 43°43' E 029°02'4 9.1
2017-Nov-11 14:30N 43°47' E 029°02'5 9.1
2017-Nov-11 14:00N 43°52' E 029°02'4 8.5
2017-Nov-11 13:30N 43°56' E 028°60'5 9.4
2017-Nov-11 13:00N 43°59' E 028°56'5 9.5
2017-Nov-11 12:30N 44°03' E 028°51'5 9.5
2017-Nov-11 12:00N 44°06' E 028°47'1 1.6
2017-Nov-11 11:28N 44°07' E 028°46'0 0.0
2017-Nov-11 10:58N 44°07' E 028°46'0 0.0
2017-Nov-11 10:28N 44°07' E 028°46'0 0.0
2017-Nov-11 09:58N 44°07' E 028°46'0 0.0
2017-Nov-11 09:28N 44°07' E 028°46'0 0.0
2017-Nov-11 08:58N 44°07' E 028°46'0 0.1
2017-Nov-11 08:28N 44°07' E 028°46'0 0.0
2017-Nov-11 07:58N 44°07' E 028°46'0 0.0
2017-Nov-11 07:28N 44°07' E 028°46'0 0.1
2017-Nov-11 06:58N 44°07' E 028°46'0 0.0
2017-Nov-11 06:28N 44°07' E 028°46'0 0.0
2017-Nov-11 05:58N 44°07' E 028°46'0 0.0
2017-Nov-11 05:28N 44°07' E 028°46'0 0.0
2017-Nov-11 04:58N 44°07' E 028°46'0 0.0
2017-Nov-11 04:28N 44°07' E 028°46'0 0.0
2017-Nov-11 03:58N 44°07' E 028°46'0 0.0
2017-Nov-11 03:28N 44°07' E 028°46'0 0.1
2017-Nov-11 02:58N 44°07' E 028°46'0 0.0
2017-Nov-11 02:28N 44°07' E 028°46'0 0.0
2017-Nov-11 01:58N 44°07' E 028°46'0 0.0
2017-Nov-11 01:28N 44°07' E 028°46'0 0.0
2017-Nov-11 00:58N 44°07' E 028°46'0 0.1
2017-Nov-11 00:28N 44°07' E 028°46'0 0.1
2017-Nov-10 23:55N 44°07' E 028°46'0 0.0
2017-Nov-10 23:28N 44°07' E 028°46'0 0.0
2017-Nov-10 22:58N 44°07' E 028°46'0 0.0
2017-Nov-10 22:28N 44°07' E 028°46'0 0.0
2017-Nov-10 21:58N 44°07' E 028°46'0 0.0
2017-Nov-10 21:28N 44°07' E 028°46'0 0.1
2017-Nov-10 20:58N 44°07' E 028°46'0 0.0
2017-Nov-10 20:28N 44°07' E 028°46'0 0.4
2017-Nov-10 20:00N 44°07' E 028°46'4 7.1
2017-Nov-10 19:30N 44°08' E 028°51'5 9.5
2017-Nov-10 19:01N 44°10' E 028°57'5 9.5
2017-Nov-10 18:31N 44°11' E 029°04'5 9.5
2017-Nov-10 18:00N 44°12' E 029°10'5 9.2
2017-Nov-10 17:30N 44°13' E 029°16'5 9.4
2017-Nov-10 17:01N 44°14' E 029°23'5 9.6
2017-Nov-10 16:30N 44°15' E 029°29'5 9.7
2017-Nov-10 16:00N 44°17' E 029°36'5 9.9
2017-Nov-10 15:31N 44°21' E 029°40'  
2017-Nov-02 05:26N 45°09' E 029°39'2 4.1
2017-Nov-02 05:00N 45°10' E 029°42'4 7.7
2017-Nov-02 04:30N 45°08' E 029°47'  
Track history (hours):
 
Tides and Currents Weather Stations Pressure Air Temp Water Temp Dewpoint Dewpoint Depression Visibility Wind Speed Wind Dir Waves Ship Positions

Celik 1

Last reported at 2017-Nov-11 15:59 UTC. Time now 2017-Nov-23 18:25 UTC.
Position N 43°33' E 029°02'.
Warning: this ship's position is 12 days out of date.

Length 121 m; draft 6.8 m.

Type: Cargo ship. MMSI: 249114000.

Date/timePositionNaut miles runAvg speedWind from/ knotsBaromVisibWave heightAir tempDewpointWater temp
2017-Nov-11 15:59N 43°33' E 029°02'7 9.3
2017-Nov-11 15:12N 43°41' E 029°02'3 9.3
2017-Nov-11 14:55N 43°43' E 029°02'4 9.1
2017-Nov-11 14:30N 43°47' E 029°02'5 9.1
2017-Nov-11 14:00N 43°52' E 029°02'4 8.5
2017-Nov-11 13:30N 43°56' E 028°60'5 9.4
2017-Nov-11 13:00N 43°59' E 028°56'5 9.5
2017-Nov-11 12:30N 44°03' E 028°51'5 9.5
2017-Nov-11 12:00N 44°06' E 028°47'1 1.6
2017-Nov-11 11:28N 44°07' E 028°46'0 0.0
2017-Nov-11 10:58N 44°07' E 028°46'0 0.0
2017-Nov-11 10:28N 44°07' E 028°46'0 0.0
2017-Nov-11 09:58N 44°07' E 028°46'0 0.0
2017-Nov-11 09:28N 44°07' E 028°46'0 0.0
2017-Nov-11 08:58N 44°07' E 028°46'0 0.1
2017-Nov-11 08:28N 44°07' E 028°46'0 0.0
2017-Nov-11 07:58N 44°07' E 028°46'0 0.0
2017-Nov-11 07:28N 44°07' E 028°46'0 0.1
2017-Nov-11 06:58N 44°07' E 028°46'0 0.0
2017-Nov-11 06:28N 44°07' E 028°46'0 0.0
2017-Nov-11 05:58N 44°07' E 028°46'0 0.0
2017-Nov-11 05:28N 44°07' E 028°46'0 0.0
2017-Nov-11 04:58N 44°07' E 028°46'0 0.0
2017-Nov-11 04:28N 44°07' E 028°46'0 0.0
2017-Nov-11 03:58N 44°07' E 028°46'0 0.0
2017-Nov-11 03:28N 44°07' E 028°46'0 0.1
2017-Nov-11 02:58N 44°07' E 028°46'0 0.0
2017-Nov-11 02:28N 44°07' E 028°46'0 0.0
2017-Nov-11 01:58N 44°07' E 028°46'0 0.0
2017-Nov-11 01:28N 44°07' E 028°46'0 0.0
2017-Nov-11 00:58N 44°07' E 028°46'0 0.1
2017-Nov-11 00:28N 44°07' E 028°46'0 0.1
2017-Nov-10 23:55N 44°07' E 028°46'0 0.0
2017-Nov-10 23:28N 44°07' E 028°46'0 0.0
2017-Nov-10 22:58N 44°07' E 028°46'0 0.0
2017-Nov-10 22:28N 44°07' E 028°46'0 0.0
2017-Nov-10 21:58N 44°07' E 028°46'0 0.0
2017-Nov-10 21:28N 44°07' E 028°46'0 0.1
2017-Nov-10 20:58N 44°07' E 028°46'0 0.0
2017-Nov-10 20:28N 44°07' E 028°46'0 0.4
2017-Nov-10 20:00N 44°07' E 028°46'4 7.1
2017-Nov-10 19:30N 44°08' E 028°51'5 9.5
2017-Nov-10 19:01N 44°10' E 028°57'5 9.5
2017-Nov-10 18:31N 44°11' E 029°04'5 9.5
2017-Nov-10 18:00N 44°12' E 029°10'5 9.2
2017-Nov-10 17:30N 44°13' E 029°16'5 9.4
2017-Nov-10 17:01N 44°14' E 029°23'5 9.6
2017-Nov-10 16:30N 44°15' E 029°29'5 9.7
2017-Nov-10 16:00N 44°17' E 029°36'5 9.9
2017-Nov-10 15:31N 44°21' E 029°40'  
2017-Nov-02 05:26N 45°09' E 029°39'2 4.1
2017-Nov-02 05:00N 45°10' E 029°42'4 7.7
2017-Nov-02 04:30N 45°08' E 029°47'  

Dump ship's entire track history